Oswegatchie, New York
Current Conditions -  °F | °C
As of 11:58 AM on Thursday 23 Oct 2014 (Local Time) from KGTB Reporting Station
Broken Clouds Broken Clouds  
Wind Chill: 43°   Ceiling: 2600
Heat Index: 49°   Visibility: 10mi
Dew Point: 37°   Wind: 18mph
Humidity: 62%   Direction: 40°NE
Pressure: 29.99"   Gusts: NA
Location:  44.18°N, 75.07°W
Report Text: KGTB 231558Z AUTO 04016KT 10SM BKN026 10/03 A2999 RMK AO2 SLP160 T00950025
Loading
Personal Weather Stations






























Interactive Weather Map
Tropical Storm Tracking
New forecast layout! Learn more

10-Day Weather Forecast

Advertisements
Track Severe Weather on mobile